Time;durP1;ratioP1;P1;durP2;ratioP2;P2;SDS_P1;SDS_P2;PMS_P1;PMS_P2;Temp;Humidity;BMP_temperature;BMP_pressure;BME280_temperature;BME280_humidity;BME280_pressure;Samples;Min_cycle;Max_cycle;Signal;HPM_P1;HPM_P2
2023/10/23 00:01:38;;;;;;;19.67;9.27;;;16.00;99.90;;;;;;4841550;29;20038;-76
2023/10/23 00:09:33;;;;;;;20.75;10.10;;;15.50;99.90;;;;;;4929416;23;20087;-75
2023/10/23 00:11:59;;;;;;;19.58;11.40;;;15.50;99.90;;;;;;4825752;29;20117;-75
2023/10/23 00:14:26;;;;;;;20.77;10.77;;;15.50;99.90;;;;;;4824991;29;20042;-74
2023/10/23 00:16:52;;;;;;;16.55;10.63;;;15.40;99.90;;;;;;4825737;29;20030;-75
2023/10/23 00:19:18;;;;;;;20.70;10.98;;;15.30;99.90;;;;;;4840938;29;20105;-74
2023/10/23 00:21:44;;;;;;;19.02;11.52;;;15.30;99.90;;;;;;4840956;29;20109;-75
2023/10/23 00:24:11;;;;;;;18.27;11.07;;;15.10;99.90;;;;;;4841039;29;20026;-74
2023/10/23 00:26:37;;;;;;;19.95;10.65;;;15.10;99.90;;;;;;4846559;29;20381;-74
2023/10/23 00:29:03;;;;;;;22.55;11.93;;;15.10;99.90;;;;;;4847265;29;20037;-77
2023/10/23 00:31:29;;;;;;;16.75;10.13;;;15.10;99.90;;;;;;4840909;29;20034;-73
2023/10/23 00:33:58;;;;;;;22.08;10.90;;;15.20;99.90;;;;;;4840736;29;20033;-77
2023/10/23 00:36:24;;;;;;;18.23;10.43;;;15.20;99.90;;;;;;4826257;29;20037;-74
2023/10/23 00:38:49;;;;;;;20.10;10.98;;;15.20;99.90;;;;;;4809526;29;20041;-74
2023/10/23 00:41:15;;;;;;;17.85;10.63;;;15.20;99.90;;;;;;4844023;29;20482;-74
2023/10/23 00:43:41;;;;;;;19.02;11.27;;;15.20;99.90;;;;;;4844505;29;20038;-73
2023/10/23 00:46:29;;;;;;;14.68;9.65;;;15.10;99.90;;;;;;4844138;29;20038;-76
2023/10/23 00:48:55;;;;;;;17.15;10.52;;;15.20;99.90;;;;;;4841179;29;20045;-74
2023/10/23 00:51:21;;;;;;;17.38;10.43;;;15.00;99.90;;;;;;4843869;29;20038;-76
2023/10/23 00:53:48;;;;;;;19.27;9.98;;;15.10;99.90;;;;;;4843082;29;20042;-76
2023/10/23 00:56:14;;;;;;;21.88;11.18;;;15.10;99.90;;;;;;4844064;29;20031;-76
2023/10/23 00:58:42;;;;;;;18.25;10.82;;;;;;;;;;4827285;29;20030;-75
2023/10/23 01:01:12;;;;;;;24.67;13.13;;;;;;;;;;4840260;29;20106;-76
2023/10/23 01:03:38;;;;;;;22.73;10.80;;;;;;;;;;4827488;29;20054;-75
2023/10/23 01:06:05;;;;;;;21.35;11.07;;;;;;;;;;4838742;29;20034;-76
2023/10/23 01:08:31;;;;;;;18.50;11.68;;;;;;;;;;4841821;29;20053;-77
2023/10/23 01:10:58;;;;;;;20.13;11.55;;;;;;;;;;4840724;29;20371;-77
2023/10/23 01:13:25;;;;;;;18.52;10.88;;;;;;;;;;4843862;29;20041;-73
2023/10/23 01:15:52;;;;;;;18.52;9.98;;;;;;;;;;4822683;29;20027;-76
2023/10/23 01:18:18;;;;;;;18.63;10.57;;;;;;;;;;4843855;29;20554;-77
2023/10/23 01:20:45;;;;;;;18.13;9.77;;;;;;;;;;4832275;29;20053;-76
2023/10/23 01:23:11;;;;;;;16.77;9.00;;;;;;;;;;4828156;29;20034;-78
2023/10/23 01:25:40;;;;;;;18.60;9.75;;;;;;;;;;4812137;29;20030;-77
2023/10/23 01:28:06;;;;;;;16.65;9.20;;;14.80;99.90;;;;;;4843561;29;20026;-76
2023/10/23 01:30:33;;;;;;;16.45;9.73;;;14.70;99.90;;;;;;4843250;29;20030;-76
2023/10/23 01:33:00;;;;;;;22.67;9.18;;;14.80;99.90;;;;;;4826587;29;20030;-75
2023/10/23 01:35:26;;;;;;;31.98;9.20;;;14.80;99.90;;;;;;4826900;29;20022;-76
2023/10/23 01:37:52;;;;;;;16.98;9.82;;;14.90;99.90;;;;;;4843301;29;20037;-76
2023/10/23 01:40:20;;;;;;;16.60;8.77;;;14.80;99.90;;;;;;4842664;29;20072;-76
2023/10/23 01:42:46;;;;;;;16.55;9.32;;;14.90;99.90;;;;;;4826882;29;20034;-75
2023/10/23 01:45:12;;;;;;;19.42;9.10;;;14.80;99.90;;;;;;4843230;29;20042;-75
2023/10/23 01:47:38;;;;;;;20.73;9.50;;;14.80;99.90;;;;;;4826614;29;20057;-75
2023/10/23 01:50:05;;;;;;;14.15;8.32;;;14.80;99.90;;;;;;4826315;29;20040;-76
2023/10/23 01:52:31;;;;;;;11.50;8.13;;;14.80;99.90;;;;;;4842730;29;20046;-76
2023/10/23 01:54:58;;;;;;;13.98;8.20;;;14.80;99.90;;;;;;4843211;29;20463;-76
2023/10/23 01:57:24;;;;;;;18.98;8.48;;;14.80;99.90;;;;;;4826582;29;20038;-76
2023/10/23 01:59:50;;;;;;;15.75;8.35;;;14.80;99.90;;;;;;4826322;29;20026;-75
2023/10/23 02:02:16;;;;;;;14.70;8.43;;;14.90;99.90;;;;;;4826724;29;20034;-75
2023/10/23 02:04:41;;;;;;;14.98;8.65;;;14.80;99.90;;;;;;4825914;29;20038;-76
2023/10/23 02:07:08;;;;;;;14.88;8.13;;;14.80;99.90;;;;;;4843022;29;20030;-76
2023/10/23 02:09:34;;;;;;;16.95;8.23;;;;;;;;;;4842132;29;20045;-78
2023/10/23 02:12:01;;;;;;;13.55;8.95;;;;;;;;;;4842538;29;20038;-76
2023/10/23 02:14:27;;;;;;;13.82;8.77;;;;;;;;;;4826229;29;20114;-75
2023/10/23 02:16:55;;;;;;;17.88;9.45;;;;;;;;;;4842988;29;20546;-76
2023/10/23 02:19:21;;;;;;;15.40;8.70;;;14.80;99.90;;;;;;4825913;29;20049;-76
2023/10/23 02:21:49;;;;;;;15.57;9.40;;;14.80;99.90;;;;;;4842618;29;20527;-76
2023/10/23 02:24:21;;;;;;;17.90;9.32;;;14.80;99.90;;;;;;4839769;29;20034;-77
2023/10/23 02:26:48;;;;;;;16.65;9.95;;;;;;;;;;4825666;29;20061;-75
2023/10/23 02:29:15;;;;;;;14.40;8.90;;;;;;;;;;4832811;29;20040;-76
2023/10/23 02:31:41;;;;;;;16.25;9.75;;;;;;;;;;4847266;29;20129;-75
2023/10/23 02:34:07;;;;;;;18.77;10.43;;;;;;;;;;4825902;29;20034;-76
2023/10/23 02:36:34;;;;;;;20.83;9.55;;;;;;;;;;4825322;29;20033;-75
2023/10/23 02:39:00;;;;;;;16.58;9.27;;;;;;;;;;4825776;29;20106;-77
2023/10/23 02:41:30;;;;;;;15.57;9.15;;;;;;;;;;4842142;29;20045;-76
2023/10/23 02:43:57;;;;;;;17.88;9.38;;;;;;;;;;4825508;29;20033;-75
2023/10/23 02:46:24;;;;;;;15.23;9.68;;;;;;;;;;4825672;29;20037;-77
2023/10/23 02:48:51;;;;;;;36.17;24.08;;;;;;;;;;4842023;29;20063;-76
2023/10/23 02:51:17;;;;;;;47.88;32.03;;;;;;;;;;4810429;29;20053;-76
2023/10/23 02:53:43;;;;;;;46.22;28.73;;;;;;;;;;4841386;29;20492;-77
2023/10/23 02:56:11;;;;;;;40.72;25.50;;;;;;;;;;4841726;29;20038;-78
2023/10/23 02:58:37;;;;;;;31.15;20.90;;;;;;;;;;4841846;29;20026;-77
2023/10/23 03:01:13;;;;;;;29.92;20.75;;;14.60;99.90;;;;;;4824796;29;20045;-77
2023/10/23 03:03:40;;;;;;;30.30;19.13;;;;;;;;;;4841730;29;20034;-76
2023/10/23 03:06:07;;;;;;;29.40;18.08;;;;;;;;;;4841185;29;20086;-77
2023/10/23 03:08:33;;;;;;;26.75;15.40;;;;;;;;;;4825032;29;20461;-74
2023/10/23 03:10:59;;;;;;;18.08;11.48;;;;;;;;;;4824878;29;20550;-76
2023/10/23 03:13:25;;;;;;;19.48;10.30;;;;;;;;;;4841853;29;20032;-75
2023/10/23 03:15:52;;;;;;;17.02;9.05;;;;;;;;;;4841220;29;20034;-76
2023/10/23 03:18:18;;;;;;;18.40;9.27;;;14.30;99.90;;;;;;4810548;29;20117;-76
2023/10/23 03:20:43;;;;;;;15.93;8.23;;;14.30;99.90;;;;;;4825109;29;20122;-78
2023/10/23 03:23:09;;;;;;;14.85;7.25;;;14.40;99.90;;;;;;4841746;29;20040;-77
2023/10/23 03:25:38;;;;;;;14.95;8.00;;;14.20;99.90;;;;;;4841226;29;20030;-76
2023/10/23 03:28:04;;;;;;;16.58;7.90;;;14.30;99.90;;;;;;4841530;29;20053;-77
2023/10/23 03:30:29;;;;;;;14.02;7.90;;;14.10;99.90;;;;;;4841363;29;20068;-76
2023/10/23 03:32:55;;;;;;;14.10;7.97;;;14.20;99.90;;;;;;4841611;29;20457;-77
2023/10/23 03:35:21;;;;;;;12.82;7.28;;;14.10;99.90;;;;;;4841373;29;20022;-76
2023/10/23 03:37:47;;;;;;;13.27;6.93;;;14.10;99.90;;;;;;4841132;29;20041;-75
2023/10/23 03:40:13;;;;;;;13.55;7.40;;;14.10;99.90;;;;;;4841269;29;20030;-76
2023/10/23 03:42:39;;;;;;;11.07;5.93;;;14.00;99.90;;;;;;4841224;29;20530;-75
2023/10/23 03:45:05;;;;;;;10.02;5.07;;;14.10;99.90;;;;;;4830929;29;20074;-75
2023/10/23 03:47:31;;;;;;;8.65;5.10;;;14.00;99.90;;;;;;4824102;29;20142;-75
2023/10/23 03:50:02;;;;;;;11.90;5.38;;;14.00;99.90;;;;;;4841179;29;20034;-77
2023/10/23 03:52:28;;;;;;;11.70;5.55;;;14.00;99.90;;;;;;4840755;29;20046;-77
2023/10/23 03:54:54;;;;;;;14.35;6.07;;;14.10;99.90;;;;;;4840849;29;20493;-78
2023/10/23 03:57:20;;;;;;;13.90;7.63;;;14.00;99.90;;;;;;4832042;29;20042;-78
2023/10/23 03:59:45;;;;;;;13.80;6.93;;;14.00;99.90;;;;;;4840325;29;20116;-75
2023/10/23 04:02:11;;;;;;;11.80;7.20;;;14.00;99.90;;;;;;4840894;29;20158;-74
2023/10/23 04:04:38;;;;;;;16.42;7.82;;;14.00;99.90;;;;;;4841163;29;20026;-75
2023/10/23 04:07:04;;;;;;;13.52;7.50;;;14.10;99.90;;;;;;4841464;29;20437;-74
2023/10/23 04:09:31;;;;;;;9.45;5.63;;;14.00;99.90;;;;;;4840493;29;20072;-74
2023/10/23 04:11:57;;;;;;;9.85;4.82;;;14.00;99.90;;;;;;4842176;29;20122;-74
2023/10/23 04:14:22;;;;;;;9.63;5.53;;;13.80;99.90;;;;;;4843195;29;20474;-74
2023/10/23 04:16:49;;;;;;;11.35;5.85;;;13.90;99.90;;;;;;4843096;29;20044;-75
2023/10/23 04:19:14;;;;;;;9.73;5.30;;;13.90;99.90;;;;;;4847200;29;20482;-75
2023/10/23 04:21:40;;;;;;;10.88;5.72;;;13.90;99.90;;;;;;4849651;29;20037;-75
2023/10/23 04:24:09;;;;;;;12.73;7.18;;;13.90;99.90;;;;;;4828635;29;20101;-76
2023/10/23 04:26:35;;;;;;;12.77;6.95;;;13.90;99.90;;;;;;4839481;29;20660;-75
2023/10/23 04:29:02;;;;;;;13.35;7.80;;;13.90;99.90;;;;;;4826759;29;20128;-76
2023/10/23 04:31:28;;;;;;;18.45;8.63;;;13.90;99.90;;;;;;4824254;29;20064;-75
2023/10/23 04:33:54;;;;;;;15.30;6.45;;;13.90;99.90;;;;;;4842464;29;20545;-75
2023/10/23 04:36:20;;;;;;;17.45;10.25;;;14.00;99.90;;;;;;4838646;29;20394;-74
2023/10/23 04:38:47;;;;;;;24.73;15.38;;;14.00;99.90;;;;;;4836617;29;20042;-73
2023/10/23 04:41:15;;;;;;;23.10;13.07;;;13.90;99.90;;;;;;4846488;29;20030;-75
2023/10/23 04:43:41;;;;;;;30.33;15.50;;;13.90;99.90;;;;;;4842941;29;20026;-75
2023/10/23 04:46:07;;;;;;;26.25;13.02;;;13.90;99.90;;;;;;4844358;29;20044;-73
2023/10/23 04:48:33;;;;;;;17.30;11.10;;;13.90;99.90;;;;;;4843957;29;20109;-75
2023/10/23 04:50:59;;;;;;;18.45;9.70;;;13.80;99.90;;;;;;4844171;29;20049;-74
2023/10/23 04:53:26;;;;;;;16.80;9.73;;;13.80;99.90;;;;;;4843916;29;20030;-75
2023/10/23 04:55:52;;;;;;;22.35;10.45;;;13.70;99.90;;;;;;4844087;29;20022;-75
2023/10/23 04:58:18;;;;;;;18.90;11.15;;;13.80;99.90;;;;;;4827580;29;20041;-75
2023/10/23 05:00:45;;;;;;;21.63;11.10;;;13.70;99.90;;;;;;4843955;29;20131;-75
2023/10/23 05:03:10;;;;;;;17.80;10.93;;;13.80;99.90;;;;;;4843494;29;20026;-75
2023/10/23 05:05:36;;;;;;;24.10;11.77;;;13.80;99.90;;;;;;4844372;29;20367;-76
2023/10/23 05:08:03;;;;;;;24.35;13.98;;;13.80;99.90;;;;;;4851998;29;20029;-74
2023/10/23 05:10:30;;;;;;;25.20;12.88;;;13.80;99.90;;;;;;4828481;29;20046;-75
2023/10/23 05:12:56;;;;;;;24.88;13.48;;;13.80;99.90;;;;;;4846967;29;20030;-75
2023/10/23 05:15:22;;;;;;;26.48;12.55;;;13.80;99.90;;;;;;4826601;29;20049;-74
2023/10/23 05:17:50;;;;;;;19.70;11.88;;;13.80;99.90;;;;;;4846981;29;20069;-75
2023/10/23 05:20:15;;;;;;;22.27;11.35;;;13.90;99.90;;;;;;4843821;29;20094;-73
2023/10/23 05:22:41;;;;;;;16.00;10.02;;;13.80;99.90;;;;;;4838470;29;20475;-74
2023/10/23 05:25:11;;;;;;;24.80;12.18;;;13.90;99.90;;;;;;4835593;29;20058;-74
2023/10/23 05:27:37;;;;;;;16.95;10.73;;;13.90;99.90;;;;;;4834455;29;20105;-75
2023/10/23 05:30:04;;;;;;;18.77;10.35;;;13.90;99.90;;;;;;4827558;29;20066;-75
2023/10/23 05:32:34;;;;;;;19.85;9.85;;;14.00;99.90;;;;;;4843242;29;20042;-75
2023/10/23 05:35:01;;;;;;;20.52;9.85;;;14.40;99.90;;;;;;4843372;29;20045;-75
2023/10/23 05:37:27;;;;;;;15.07;8.32;;;14.40;99.90;;;;;;4843532;29;20024;-75
2023/10/23 05:39:53;;;;;;;21.98;9.90;;;14.40;99.90;;;;;;4843280;29;20041;-75
2023/10/23 05:42:19;;;;;;;18.73;9.55;;;14.40;99.90;;;;;;4843057;29;20022;-75
2023/10/23 05:44:45;;;;;;;18.38;8.80;;;14.50;99.90;;;;;;4843269;29;20040;-75
2023/10/23 05:47:11;;;;;;;19.15;10.40;;;14.50;99.90;;;;;;4842921;29;20038;-75
2023/10/23 05:49:37;;;;;;;19.92;9.98;;;14.50;99.90;;;;;;4843277;29;20030;-75
2023/10/23 05:52:03;;;;;;;20.02;11.00;;;14.60;99.90;;;;;;4842844;29;20088;-74
2023/10/23 05:54:30;;;;;;;22.63;10.57;;;14.60;99.90;;;;;;4842907;29;20467;-75
2023/10/23 05:56:56;;;;;;;18.75;9.93;;;14.80;99.90;;;;;;4843103;29;20026;-75
2023/10/23 05:59:23;;;;;;;17.25;9.77;;;14.80;99.90;;;;;;4842953;29;20049;-75
2023/10/23 06:01:49;;;;;;;19.77;11.50;;;14.90;99.90;;;;;;4842881;29;20044;-75
2023/10/23 06:04:15;;;;;;;22.67;10.55;;;15.00;99.90;;;;;;4826347;29;20030;-75
2023/10/23 06:06:41;;;;;;;22.23;11.02;;;15.10;99.90;;;;;;4843073;29;20112;-74
2023/10/23 06:09:07;;;;;;;21.25;10.95;;;15.20;99.90;;;;;;4842488;29;20570;-74
2023/10/23 06:11:33;;;;;;;25.50;12.40;;;15.20;99.90;;;;;;4842933;29;20525;-74
2023/10/23 06:13:59;;;;;;;19.20;9.75;;;15.20;99.90;;;;;;4842469;29;20030;-74
2023/10/23 06:16:25;;;;;;;21.05;10.43;;;15.10;99.90;;;;;;4842600;29;20068;-75
2023/10/23 06:18:51;;;;;;;19.42;9.90;;;15.20;99.90;;;;;;4842160;29;20474;-75
2023/10/23 06:21:16;;;;;;;18.67;10.10;;;15.30;99.90;;;;;;4842435;29;20034;-75
2023/10/23 06:23:42;;;;;;;14.55;9.23;;;15.40;99.90;;;;;;4842430;29;20498;-74
2023/10/23 06:26:09;;;;;;;13.80;8.25;;;15.40;99.90;;;;;;4842585;29;20030;-74
2023/10/23 06:28:36;;;;;;;17.63;8.70;;;15.50;99.90;;;;;;4842476;29;20033;-74
2023/10/23 06:31:08;;;;;;;15.32;8.48;;;15.60;99.90;;;;;;4825660;29;20129;-74
2023/10/23 06:33:35;;;;;;;18.02;9.23;;;15.70;99.90;;;;;;4842268;29;20059;-74
2023/10/23 06:36:03;;;;;;;12.07;7.25;;;15.70;99.90;;;;;;4841950;29;20408;-75
2023/10/23 06:38:29;;;;;;;14.95;7.82;;;15.80;99.90;;;;;;4825606;29;20026;-74
2023/10/23 06:40:55;;;;;;;16.13;8.32;;;15.80;99.90;;;;;;4842101;29;20075;-74
2023/10/23 06:43:21;;;;;;;13.35;7.18;;;15.90;99.90;;;;;;4842000;29;20058;-75
2023/10/23 06:45:47;;;;;;;17.05;8.20;;;16.00;99.90;;;;;;4842190;29;20061;-75
2023/10/23 06:48:15;;;;;;;18.60;7.90;;;16.20;99.90;;;;;;4841629;29;20462;-74
2023/10/23 06:50:49;;;;;;;14.55;7.55;;;16.50;99.90;;;;;;4842100;29;20034;-73
2023/10/23 06:53:15;;;;;;;16.55;7.53;;;16.60;99.90;;;;;;4841733;29;20120;-75
2023/10/23 06:55:51;;;;;;;17.42;7.93;;;16.70;99.90;;;;;;4841943;29;20087;-74
2023/10/23 06:58:20;;;;;;;10.82;7.10;;;16.90;99.90;;;;;;4829998;29;20054;-75
2023/10/23 07:00:47;;;;;;;15.25;7.65;;;17.10;99.90;;;;;;4841502;29;20117;-75
2023/10/23 07:03:13;;;;;;;18.95;8.80;;;17.20;99.90;;;;;;4842008;29;20030;-74
2023/10/23 07:05:40;;;;;;;13.70;7.32;;;17.30;99.90;;;;;;4841335;29;20082;-74
2023/10/23 07:08:06;;;;;;;16.20;7.63;;;17.40;99.90;;;;;;4841911;29;20034;-74
2023/10/23 07:10:36;;;;;;;13.75;7.82;;;17.40;99.90;;;;;;4824819;29;20068;-75
2023/10/23 07:13:02;;;;;;;15.05;7.93;;;17.50;99.90;;;;;;4810065;29;20124;-74
2023/10/23 07:15:31;;;;;;;16.48;9.50;;;17.60;99.90;;;;;;4841198;29;20082;-74
2023/10/23 07:17:57;;;;;;;15.27;8.02;;;17.80;99.90;;;;;;4841391;29;20178;-75
2023/10/23 07:20:23;;;;;;;13.68;8.30;;;17.90;99.90;;;;;;4841380;29;20053;-75
2023/10/23 07:22:49;;;;;;;18.63;8.98;;;18.10;99.90;;;;;;4841220;29;20022;-76
2023/10/23 07:25:15;;;;;;;18.45;9.65;;;18.10;99.90;;;;;;4841078;29;20029;-75
2023/10/23 07:27:41;;;;;;;18.58;10.43;;;18.10;99.90;;;;;;4841295;29;20061;-74
2023/10/23 07:30:07;;;;;;;16.80;10.85;;;18.20;99.90;;;;;;4841459;29;20122;-76
2023/10/23 07:32:36;;;;;;;20.38;11.48;;;18.10;99.90;;;;;;4825116;29;20045;-76
2023/10/23 07:35:05;;;;;;;17.15;9.93;;;18.10;99.90;;;;;;4841451;29;20029;-75
2023/10/23 07:37:32;;;;;;;18.40;10.90;;;18.20;99.90;;;;;;4841255;29;20033;-74
2023/10/23 07:39:58;;;;;;;17.27;10.80;;;18.10;99.90;;;;;;4840829;29;20038;-75
2023/10/23 07:42:26;;;;;;;17.13;10.05;;;18.10;99.90;;;;;;4841381;29;20091;-75
2023/10/23 07:44:51;;;;;;;17.42;10.88;;;18.20;99.90;;;;;;4840937;29;20029;-76
2023/10/23 07:47:17;;;;;;;22.65;11.20;;;18.40;99.90;;;;;;4841435;29;20030;-76
2023/10/23 07:49:44;;;;;;;18.85;11.23;;;18.60;99.90;;;;;;4840612;29;20022;-76
2023/10/23 07:52:10;;;;;;;15.88;9.25;;;18.70;99.90;;;;;;4841159;29;20045;-74
2023/10/23 07:54:36;;;;;;;18.13;9.73;;;18.90;99.90;;;;;;4840880;29;20462;-75
2023/10/23 07:57:02;;;;;;;17.17;9.95;;;18.90;99.90;;;;;;4841167;29;20038;-75
2023/10/23 07:59:28;;;;;;;17.50;9.75;;;19.10;99.90;;;;;;4840925;29;20186;-74
2023/10/23 08:01:53;;;;;;;18.48;9.55;;;19.20;99.90;;;;;;4850650;29;20061;-74
2023/10/23 08:04:19;;;;;;;15.77;8.68;;;19.20;99.90;;;;;;4843613;29;20481;-74
2023/10/23 08:06:45;;;;;;;17.88;10.20;;;19.20;99.90;;;;;;4824578;29;20046;-74
2023/10/23 08:09:12;;;;;;;16.27;9.70;;;19.30;99.90;;;;;;4840916;29;20379;-75
2023/10/23 08:11:38;;;;;;;21.00;10.20;;;19.50;99.90;;;;;;4840889;29;20038;-75
2023/10/23 08:14:04;;;;;;;23.70;9.73;;;19.50;99.90;;;;;;4840917;29;20088;-77
2023/10/23 08:16:30;;;;;;;16.88;10.18;;;19.70;99.90;;;;;;4841001;29;20074;-75
2023/10/23 08:18:57;;;;;;;18.00;10.68;;;19.80;99.90;;;;;;4840817;29;20030;-76
2023/10/23 08:21:25;;;;;;;17.98;9.93;;;20.00;99.90;;;;;;4840892;29;20038;-74
2023/10/23 08:23:56;;;;;;;18.50;11.45;;;19.90;99.90;;;;;;4840820;29;20022;-77
2023/10/23 08:26:23;;;;;;;21.77;10.93;;;19.90;99.90;;;;;;4850888;29;20405;-74
2023/10/23 08:28:49;;;;;;;24.42;12.13;;;19.90;99.90;;;;;;4842278;29;20455;-74
2023/10/23 08:31:16;;;;;;;21.63;14.38;;;19.90;99.90;;;;;;4840924;29;20045;-74
2023/10/23 08:33:41;;;;;;;20.70;14.30;;;20.00;99.90;;;;;;4844613;29;20026;-74
2023/10/23 08:36:07;;;;;;;21.08;13.55;;;19.80;99.90;;;;;;4849410;29;20498;-74
2023/10/23 08:38:33;;;;;;;20.67;13.18;;;19.80;99.90;;;;;;4823985;29;20034;-74
2023/10/23 08:41:03;;;;;;;19.38;13.73;;;20.10;99.90;;;;;;4840784;29;20030;-74
2023/10/23 08:43:30;;;;;;;18.33;12.45;;;20.10;99.90;;;;;;4840325;29;20114;-75
2023/10/23 08:45:59;;;;;;;22.25;12.93;;;20.30;99.90;;;;;;4840827;29;20026;-74
2023/10/23 08:48:25;;;;;;;23.48;11.98;;;20.50;99.90;;;;;;4840503;29;20588;-74
2023/10/23 08:50:51;;;;;;;18.55;10.63;;;20.60;99.90;;;;;;4840488;29;20046;-75
2023/10/23 08:53:22;;;;;;;19.27;11.10;;;20.60;99.90;;;;;;4824611;29;20109;-74
2023/10/23 08:55:48;;;;;;;16.13;9.35;;;20.70;99.90;;;;;;4840013;29;20067;-75
2023/10/23 08:58:17;;;;;;;18.45;10.07;;;20.50;99.90;;;;;;4828157;29;20038;-75
2023/10/23 09:00:43;;;;;;;17.65;8.82;;;20.50;99.90;;;;;;4841547;29;20045;-75
2023/10/23 09:03:10;;;;;;;17.38;8.95;;;20.60;99.90;;;;;;4844125;29;20025;-76
2023/10/23 09:05:36;;;;;;;14.45;8.82;;;20.80;99.90;;;;;;4827157;29;20470;-74
2023/10/23 09:08:02;;;;;;;16.77;9.60;;;20.90;99.90;;;;;;4843903;29;20041;-74
2023/10/23 09:10:28;;;;;;;16.40;10.07;;;20.80;99.90;;;;;;4843279;29;20074;-74
2023/10/23 09:12:56;;;;;;;18.38;10.13;;;20.80;99.90;;;;;;4843319;29;20072;-75
2023/10/23 09:15:23;;;;;;;17.75;9.90;;;21.00;99.90;;;;;;4843510;29;20034;-76
2023/10/23 09:17:49;;;;;;;17.85;9.20;;;21.10;99.90;;;;;;4843512;29;20124;-75
2023/10/23 09:20:26;;;;;;;24.00;10.10;;;21.20;99.90;;;;;;4843608;29;20033;-75
2023/10/23 09:22:52;;;;;;;20.35;9.98;;;21.30;99.90;;;;;;4843442;29;20038;-74
2023/10/23 09:25:20;;;;;;;17.05;9.80;;;21.30;99.90;;;;;;4843393;29;20416;-77
2023/10/23 09:27:47;;;;;;;15.88;8.65;;;21.40;99.90;;;;;;4843147;29;20050;-74
2023/10/23 09:30:15;;;;;;;17.98;8.70;;;21.10;99.90;;;;;;4843186;29;20026;-75
2023/10/23 09:32:41;;;;;;;15.05;7.03;;;21.20;99.90;;;;;;4827022;29;20041;-74
2023/10/23 09:35:08;;;;;;;16.05;7.93;;;21.20;99.90;;;;;;4843039;29;20066;-74
2023/10/23 09:37:36;;;;;;;16.23;7.45;;;21.30;99.90;;;;;;4843485;29;20075;-74
2023/10/23 09:40:09;;;;;;;15.38;7.60;;;21.40;99.90;;;;;;4842915;29;20517;-74
2023/10/23 09:42:35;;;;;;;18.05;8.35;;;21.40;99.90;;;;;;4843190;29;20072;-74
2023/10/23 09:45:04;;;;;;;13.60;6.47;;;21.50;99.90;;;;;;4842767;29;20050;-74
2023/10/23 09:47:31;;;;;;;15.70;8.10;;;21.60;99.90;;;;;;4843266;29;20394;-74
2023/10/23 09:49:58;;;;;;;16.30;8.32;;;21.70;99.90;;;;;;4842993;29;20030;-74
2023/10/23 09:52:26;;;;;;;16.13;8.65;;;21.90;99.90;;;;;;4842863;29;20045;-74
2023/10/23 09:55:06;;;;;;;19.25;9.10;;;21.90;99.90;;;;;;4842724;29;20382;-74
2023/10/23 09:57:36;;;;;;;18.30;9.27;;;22.10;99.90;;;;;;4826473;29;20037;-74
2023/10/23 10:00:13;;;;;;;18.85;9.32;;;22.10;99.90;;;;;;4843165;29;20033;-74
2023/10/23 10:02:42;;;;;;;19.60;8.30;;;21.80;99.90;;;;;;4843047;29;20033;-74
2023/10/23 10:05:12;;;;;;;15.80;8.95;;;21.80;99.90;;;;;;4842817;29;20435;-74
2023/10/23 10:08:02;;;;;;;15.35;8.10;;;21.90;99.90;;;;;;4842503;29;20033;-74
2023/10/23 10:10:32;;;;;;;22.42;9.90;;;22.00;99.90;;;;;;4842523;29;20046;-74
2023/10/23 10:12:59;;;;;;;14.50;7.43;;;22.10;99.90;;;;;;4830576;29;20460;-75
2023/10/23 10:15:25;;;;;;;15.27;8.00;;;22.30;99.90;;;;;;4842628;29;20062;-74
2023/10/23 10:17:51;;;;;;;12.85;6.32;;;22.30;99.90;;;;;;4842671;29;20034;-74
2023/10/23 10:20:21;;;;;;;15.00;7.10;;;22.70;99.90;;;;;;4811016;29;20062;-75
2023/10/23 10:22:54;;;;;;;14.27;7.90;;;22.30;99.90;;;;;;4842630;29;20026;-74
2023/10/23 10:25:21;;;;;;;19.02;7.30;;;22.40;99.90;;;;;;4842373;29;20064;-75
2023/10/23 10:27:58;;;;;;;12.82;7.10;;;22.50;99.90;;;;;;4842517;29;20105;-78
2023/10/23 10:30:47;;;;;;;12.93;6.65;;;22.50;99.90;;;;;;4842492;29;20041;-74
2023/10/23 10:33:31;;;;;;;15.63;7.05;;;22.50;99.90;;;;;;4842393;29;20108;-75
2023/10/23 10:36:05;;;;;;;16.33;7.53;;;22.50;99.90;;;;;;4842398;29;20026;-74
2023/10/23 10:38:33;;;;;;;15.00;7.47;;;22.30;99.90;;;;;;4842174;29;20034;-74
2023/10/23 10:41:00;;;;;;;12.27;7.63;;;22.30;99.90;;;;;;4842379;29;20037;-75
2023/10/23 10:43:33;;;;;;;14.38;7.53;;;22.40;99.90;;;;;;4841943;29;20034;-73
2023/10/23 10:46:18;;;;;;;15.55;8.05;;;22.50;99.90;;;;;;4841975;29;20025;-73
2023/10/23 10:48:45;;;;;;;17.50;7.10;;;22.40;99.90;;;;;;4842360;29;20033;-73
2023/10/23 10:51:24;;;;;;;16.50;8.20;;;22.60;99.90;;;;;;4841986;29;20053;-73
2023/10/23 10:54:06;;;;;;;14.90;7.18;;;22.50;99.90;;;;;;4841615;29;20098;-73
2023/10/23 10:56:32;;;;;;;13.32;6.03;;;22.60;99.90;;;;;;4841674;29;20433;-74
2023/10/23 10:59:02;;;;;;;11.35;6.03;;;22.70;99.90;;;;;;4841671;29;20090;-76
2023/10/23 11:01:28;;;;;;;14.27;6.32;;;22.80;99.90;;;;;;4841919;29;20061;-73
2023/10/23 11:03:55;;;;;;;17.02;7.10;;;22.90;99.90;;;;;;4841859;29;20022;-73
2023/10/23 11:06:20;;;;;;;12.18;6.25;;;22.60;99.90;;;;;;4841625;29;20034;-73
2023/10/23 11:08:47;;;;;;;11.63;5.90;;;22.70;99.90;;;;;;4841768;29;20144;-74
2023/10/23 11:11:12;;;;;;;15.60;6.18;;;22.60;99.50;;;;;;4841226;29;20037;-74
2023/10/23 11:13:40;;;;;;;13.88;6.65;;;22.20;99.90;;;;;;4825446;29;20038;-74
2023/10/23 11:16:06;;;;;;;14.52;6.18;;;22.30;99.90;;;;;;4841326;29;20113;-74
2023/10/23 11:18:32;;;;;;;15.18;6.30;;;22.40;99.90;;;;;;4842142;29;20481;-74
2023/10/23 11:21:00;;;;;;;11.10;5.55;;;22.50;99.80;;;;;;4841173;29;20041;-74
2023/10/23 11:23:28;;;;;;;10.43;5.32;;;22.50;99.90;;;;;;4841113;29;20030;-74
2023/10/23 11:25:54;;;;;;;11.45;5.63;;;22.60;99.90;;;;;;4841255;29;20033;-75
2023/10/23 11:28:21;;;;;;;16.67;6.75;;;22.80;99.90;;;;;;4841573;29;20034;-74
2023/10/23 11:30:50;;;;;;;14.10;5.72;;;22.90;99.90;;;;;;4841232;29;20046;-74
2023/10/23 11:33:18;;;;;;;16.92;6.85;;;23.00;99.90;;;;;;4841485;29;20494;-75
2023/10/23 11:35:44;;;;;;;12.15;5.97;;;23.00;99.30;;;;;;4841487;29;20053;-74
2023/10/23 11:38:19;;;;;;;11.77;5.43;;;23.10;99.40;;;;;;4841105;29;20046;-75
2023/10/23 11:40:45;;;;;;;8.90;5.10;;;23.10;99.20;;;;;;4841662;29;20451;-74
2023/10/23 11:43:13;;;;;;;10.73;5.03;;;23.30;99.90;;;;;;4824473;29;20025;-75
2023/10/23 11:45:41;;;;;;;12.98;4.78;;;23.30;99.90;;;;;;4841012;29;20030;-75
2023/10/23 11:48:07;;;;;;;15.65;5.05;;;23.10;97.80;;;;;;4841405;29;20033;-75
2023/10/23 11:50:37;;;;;;;14.55;4.50;;;22.90;97.90;;;;;;4841342;29;20029;-75
2023/10/23 11:53:06;;;;;;;12.73;4.57;;;22.80;97.80;;;;;;4841102;29;20026;-74
2023/10/23 11:55:33;;;;;;;8.75;4.28;;;22.90;97.80;;;;;;4841162;29;20030;-74
2023/10/23 11:58:00;;;;;;;11.20;4.88;;;22.90;97.70;;;;;;4809524;29;20056;-74
2023/10/23 12:00:31;;;;;;;10.77;4.57;;;22.90;97.60;;;;;;4841499;29;20062;-74
2023/10/23 12:02:57;;;;;;;10.90;4.40;;;22.90;97.50;;;;;;4840787;29;20045;-74
2023/10/23 12:05:23;;;;;;;8.05;4.70;;;23.00;98.10;;;;;;4841266;29;20030;-74
2023/10/23 12:07:54;;;;;;;9.02;4.22;;;23.10;97.10;;;;;;4840903;29;20029;-74
2023/10/23 12:10:22;;;;;;;11.93;4.57;;;23.10;96.80;;;;;;4841061;29;20050;-76
2023/10/23 12:12:48;;;;;;;10.35;3.97;;;23.10;96.60;;;;;;4840767;29;20038;-74
2023/10/23 12:15:15;;;;;;;9.45;4.82;;;23.10;96.90;;;;;;4841239;29;20068;-74
2023/10/23 12:17:42;;;;;;;15.80;4.80;;;23.10;96.40;;;;;;4840529;29;20026;-75
2023/10/23 12:20:10;;;;;;;13.05;5.10;;;23.10;97.30;;;;;;4841194;29;20124;-75
2023/10/23 12:22:37;;;;;;;7.15;4.55;;;23.20;96.90;;;;;;4840780;29;20067;-76
2023/10/23 12:25:05;;;;;;;12.73;4.70;;;23.20;96.10;;;;;;4840526;29;20050;-74
2023/10/23 12:27:34;;;;;;;10.05;4.22;;;23.30;95.90;;;;;;4841023;29;20037;-75
2023/10/23 12:30:04;;;;;;;7.90;3.88;;;23.30;95.50;;;;;;4840659;29;20041;-74
2023/10/23 12:32:34;;;;;;;9.25;4.03;;;23.10;95.00;;;;;;4840909;29;20134;-75
2023/10/23 12:35:03;;;;;;;8.05;3.25;;;23.20;95.30;;;;;;4841200;29;20049;-75
2023/10/23 12:37:34;;;;;;;6.40;3.53;;;23.30;95.30;;;;;;4828123;29;20034;-74
2023/10/23 12:40:03;;;;;;;10.80;4.13;;;23.20;94.70;;;;;;4844652;29;20102;-75
2023/10/23 12:42:30;;;;;;;5.15;3.00;;;23.20;94.10;;;;;;4827520;29;20030;-79
2023/10/23 12:44:56;;;;;;;4.72;3.15;;;23.30;94.10;;;;;;4844201;29;20082;-74
2023/10/23 12:47:23;;;;;;;7.57;2.95;;;23.30;93.50;;;;;;4844664;29;20030;-75
2023/10/23 12:49:49;;;;;;;7.38;3.20;;;23.30;93.90;;;;;;4844431;29;20033;-75
2023/10/23 12:52:15;;;;;;;4.57;3.00;;;23.40;94.40;;;;;;4844142;29;20483;-75